Time,TemperatureF,DewpointF,PressureIn,WindDirection,WindDirectionDegrees,WindSpeedMPH,WindSpeedGustMPH,Humidity,HourlyPrecipIn,Conditions,Clouds,dailyrainin,SolarRadiationWatts/m^2,SoftwareType,DateUTC
2013-01-05 00:03:00,40.5,39.4,30.28,South,189,0.0,0.0,96,0.00,,,0.00,0,Wunderground v.1.15,2013-01-05 05:03:00,
2013-01-05 00:13:00,40.2,39.2,30.28,South,189,0.0,0.0,96,0.00,,,0.00,0,Wunderground v.1.15,2013-01-05 05:13:00,
2013-01-05 00:23:00,40.0,39.2,30.28,South,189,0.0,0.0,97,0.00,,,0.00,0,Wunderground v.1.15,2013-01-05 05:23:00,
2013-01-05 00:33:00,40.0,39.2,30.27,South,189,0.0,0.0,97,0.00,,,0.00,0,Wunderground v.1.15,2013-01-05 05:33:00,
2013-01-05 00:43:00,40.0,39.2,30.27,South,189,0.0,0.0,97,0.00,,,0.00,0,Wunderground v.1.15,2013-01-05 05:43:00,
2013-01-05 00:53:00,40.0,39.2,30.27,South,189,0.0,0.0,97,0.00,,,0.00,0,Wunderground v.1.15,2013-01-05 05:53:00,
2013-01-05 01:03:00,40.1,39.3,30.27,South,189,0.0,0.0,97,0.00,,,0.00,0,Wunderground v.1.15,2013-01-05 06:03:00,
2013-01-05 01:13:00,39.9,39.1,30.27,South,189,0.0,0.0,97,0.00,,,0.00,0,Wunderground v.1.15,2013-01-05 06:13:00,
2013-01-05 01:23:00,39.9,39.1,30.27,South,189,0.0,0.0,97,0.00,,,0.00,0,Wunderground v.1.15,2013-01-05 06:23:00,
2013-01-05 01:33:00,39.8,39.0,30.26,South,189,0.0,1.0,97,0.00,,,0.00,0,Wunderground v.1.15,2013-01-05 06:33:00,
2013-01-05 01:43:00,39.5,38.7,30.26,South,189,0.0,0.0,97,0.00,,,0.00,0,Wunderground v.1.15,2013-01-05 06:43:00,
2013-01-05 01:53:00,39.5,38.7,30.26,South,189,0.0,0.0,97,0.00,,,0.00,0,Wunderground v.1.15,2013-01-05 06:53:00,
2013-01-05 02:03:00,39.4,38.6,30.26,South,189,0.0,0.0,97,0.00,,,0.00,0,Wunderground v.1.15,2013-01-05 07:03:00,
2013-01-05 02:13:00,39.3,38.5,30.26,South,189,0.0,0.0,97,0.00,,,0.00,0,Wunderground v.1.15,2013-01-05 07:13:00,
2013-01-05 02:23:00,39.3,38.5,30.26,South,189,0.0,0.0,97,0.00,,,0.00,0,Wunderground v.1.15,2013-01-05 07:23:00,
2013-01-05 02:33:00,39.4,38.6,30.26,South,189,0.0,0.0,97,0.00,,,0.00,0,Wunderground v.1.15,2013-01-05 07:33:00,
2013-01-05 02:43:00,39.5,38.7,30.26,South,189,0.0,0.0,97,0.00,,,0.00,0,Wunderground v.1.15,2013-01-05 07:43:00,
2013-01-05 02:53:00,39.6,38.8,30.26,South,189,0.0,0.0,97,0.00,,,0.00,0,Wunderground v.1.15,2013-01-05 07:53:00,
2013-01-05 03:03:00,39.4,38.6,30.27,South,189,0.0,0.0,97,0.00,,,0.00,0,Wunderground v.1.15,2013-01-05 08:03:00,
2013-01-05 03:13:00,39.3,38.5,30.27,South,189,0.0,0.0,97,0.00,,,0.00,0,Wunderground v.1.15,2013-01-05 08:13:00,
2013-01-05 03:23:00,39.3,38.5,30.27,South,189,0.0,0.0,97,0.00,,,0.00,0,Wunderground v.1.15,2013-01-05 08:23:00,
2013-01-05 03:33:00,39.3,38.5,30.27,South,189,0.0,0.0,97,0.00,,,0.00,0,Wunderground v.1.15,2013-01-05 08:33:00,
2013-01-05 03:43:00,39.2,38.4,30.27,South,189,0.0,0.0,97,0.00,,,0.00,0,Wunderground v.1.15,2013-01-05 08:43:00,
2013-01-05 03:53:00,39.3,38.5,30.27,South,189,0.0,0.0,97,0.00,,,0.00,0,Wunderground v.1.15,2013-01-05 08:53:00,
2013-01-05 04:03:00,39.3,38.5,30.27,South,189,0.0,0.0,97,0.00,,,0.00,0,Wunderground v.1.15,2013-01-05 09:03:00,
2013-01-05 04:13:00,39.4,38.6,30.27,South,189,0.0,0.0,97,0.00,,,0.00,0,Wunderground v.1.15,2013-01-05 09:13:00,
2013-01-05 04:23:00,39.4,38.6,30.27,South,189,0.0,0.0,97,0.00,,,0.00,0,Wunderground v.1.15,2013-01-05 09:23:00,
2013-01-05 04:33:00,39.3,38.5,30.27,South,189,0.0,0.0,97,0.00,,,0.00,0,Wunderground v.1.15,2013-01-05 09:33:00,
2013-01-05 04:43:00,39.2,38.4,30.27,North,358,0.0,0.0,97,0.00,,,0.00,0,Wunderground v.1.15,2013-01-05 09:43:00,
2013-01-05 04:53:00,39.2,38.4,30.27,North,357,0.0,0.0,97,0.00,,,0.00,0,Wunderground v.1.15,2013-01-05 09:53:00,
2013-01-05 05:03:00,39.2,38.4,30.27,North,354,0.0,0.0,97,0.00,,,0.00,0,Wunderground v.1.15,2013-01-05 10:03:00,
2013-01-05 05:13:00,39.3,38.5,30.27,North,350,0.0,0.0,97,0.00,,,0.00,0,Wunderground v.1.15,2013-01-05 10:13:00,
2013-01-05 05:23:00,39.3,38.5,30.28,North,349,0.0,0.0,97,0.00,,,0.00,0,Wunderground v.1.15,2013-01-05 10:23:00,
2013-01-05 05:33:00,39.3,38.3,30.28,NNW,327,0.0,1.0,96,0.00,,,0.01,0,Wunderground v.1.15,2013-01-05 10:33:00,
2013-01-05 05:43:00,39.1,38.1,30.28,NE,36,1.0,1.0,96,0.00,,,0.01,0,Wunderground v.1.15,2013-01-05 10:43:00,
2013-01-05 05:53:00,38.9,37.6,30.28,NNW,328,0.0,1.0,95,0.00,,,0.01,0,Wunderground v.1.15,2013-01-05 10:53:00,
2013-01-05 06:03:00,38.6,37.0,30.29,NE,38,1.0,1.0,94,0.00,,,0.01,0,Wunderground v.1.15,2013-01-05 11:03:00,
2013-01-05 06:13:00,38.3,36.2,30.29,North,359,1.0,4.0,92,0.00,,,0.01,0,Wunderground v.1.15,2013-01-05 11:13:00,
2013-01-05 06:23:00,38.1,36.0,30.29,NNE,19,1.0,1.0,92,0.00,,,0.01,0,Wunderground v.1.15,2013-01-05 11:23:00,
2013-01-05 06:33:00,37.9,35.5,30.30,NNE,14,1.0,1.0,91,0.00,,,0.01,0,Wunderground v.1.15,2013-01-05 11:33:00,
2013-01-05 06:43:00,37.7,35.0,30.30,North,3,1.0,1.0,90,0.00,,,0.01,0,Wunderground v.1.15,2013-01-05 11:43:00,
2013-01-05 06:53:00,37.6,34.9,30.30,North,349,1.0,2.0,90,0.00,,,0.01,0,Wunderground v.1.15,2013-01-05 11:53:00,
2013-01-05 07:03:00,37.4,34.5,30.31,North,350,0.0,0.0,89,0.00,,,0.01,0,Wunderground v.1.15,2013-01-05 12:03:00,
2013-01-05 07:13:00,37.3,34.4,30.31,North,353,0.0,0.0,89,0.00,,,0.01,0,Wunderground v.1.15,2013-01-05 12:13:00,
2013-01-05 07:23:00,37.0,34.1,30.32,North,353,0.0,1.0,89,0.00,,,0.01,0,Wunderground v.1.15,2013-01-05 12:23:00,
2013-01-05 07:33:00,36.8,33.6,30.32,North,356,0.0,1.0,88,0.00,,,0.01,5,Wunderground v.1.15,2013-01-05 12:33:00,
2013-01-05 07:43:00,36.7,33.5,30.32,North,358,0.0,1.0,88,0.00,,,0.01,11,Wunderground v.1.15,2013-01-05 12:43:00,
2013-01-05 07:53:00,36.7,33.2,30.32,North,358,0.0,0.0,87,0.00,,,0.01,25,Wunderground v.1.15,2013-01-05 12:53:00,
2013-01-05 08:03:00,36.9,33.4,30.33,North,356,0.0,0.0,87,0.00,,,0.01,25,Wunderground v.1.15,2013-01-05 13:03:00,
2013-01-05 08:13:00,37.3,33.5,30.33,North,351,0.0,0.0,86,0.00,,,0.01,23,Wunderground v.1.15,2013-01-05 13:13:00,
2013-01-05 08:23:00,37.8,34.0,30.33,North,352,1.0,1.0,86,0.00,,,0.01,30,Wunderground v.1.15,2013-01-05 13:23:00,
2013-01-05 08:33:00,38.4,34.0,30.34,North,11,1.0,1.0,84,0.00,,,0.01,32,Wunderground v.1.15,2013-01-05 13:33:00,
2013-01-05 08:43:00,39.0,33.4,30.34,NNE,33,1.0,1.0,80,0.00,,,0.01,30,Wunderground v.1.15,2013-01-05 13:43:00,
2013-01-05 08:53:00,39.8,33.5,30.34,North,8,1.0,4.0,78,0.00,,,0.01,30,Wunderground v.1.15,2013-01-05 13:53:00,
2013-01-05 09:03:00,40.6,33.3,30.35,NNE,27,2.0,4.0,75,0.00,,,0.01,165,Wunderground v.1.15,2013-01-05 14:03:00,
2013-01-05 09:13:00,41.4,33.4,30.35,NNE,17,2.0,2.0,73,0.00,,,0.01,262,Wunderground v.1.15,2013-01-05 14:13:00,
2013-01-05 09:23:00,42.2,33.1,30.35,NE,52,2.0,2.0,70,0.00,,,0.01,93,Wunderground v.1.15,2013-01-05 14:23:00,
2013-01-05 09:33:00,42.8,33.0,30.35,NNE,16,2.0,2.0,68,0.00,,,0.01,76,Wunderground v.1.15,2013-01-05 14:33:00,
2013-01-05 09:43:00,43.3,32.7,30.35,North,11,2.0,2.0,66,0.00,,,0.01,104,Wunderground v.1.15,2013-01-05 14:43:00,
2013-01-05 09:53:00,44.1,33.5,30.35,North,350,1.0,2.0,66,0.00,,,0.01,287,Wunderground v.1.15,2013-01-05 14:53:00,
2013-01-05 10:03:00,45.1,33.6,30.36,NNE,30,2.0,2.0,64,0.00,,,0.01,417,Wunderground v.1.15,2013-01-05 15:03:00,
2013-01-05 10:13:00,46.1,34.2,30.36,ESE,117,1.0,1.0,63,0.00,,,0.01,436,Wunderground v.1.15,2013-01-05 15:13:00,
2013-01-05 10:23:00,47.2,34.8,30.35,NNE,31,1.0,1.0,62,0.00,,,0.01,459,Wunderground v.1.15,2013-01-05 15:23:00,
2013-01-05 10:33:00,48.1,34.4,30.36,NE,47,1.0,1.0,59,0.00,,,0.01,494,Wunderground v.1.15,2013-01-05 15:33:00,
2013-01-05 10:43:00,48.6,35.3,30.36,North,357,1.0,1.0,60,0.00,,,0.01,464,Wunderground v.1.15,2013-01-05 15:43:00,
2013-01-05 10:53:00,49.1,34.9,30.35,North,11,1.0,1.0,58,0.00,,,0.01,548,Wunderground v.1.15,2013-01-05 15:53:00,
2013-01-05 11:03:00,49.6,34.5,30.35,East,86,2.0,2.0,56,0.00,,,0.01,582,Wunderground v.1.15,2013-01-05 16:03:00,
2013-01-05 11:13:00,50.3,35.6,30.35,ESE,119,1.0,1.0,57,0.00,,,0.01,529,Wunderground v.1.15,2013-01-05 16:13:00,
2013-01-05 11:23:00,50.9,35.7,30.34,North,354,1.0,2.0,56,0.00,,,0.01,610,Wunderground v.1.15,2013-01-05 16:23:00,
2013-01-05 11:33:00,51.2,35.6,30.34,North,7,1.0,1.0,55,0.00,,,0.01,564,Wunderground v.1.15,2013-01-05 16:33:00,
2013-01-05 11:43:00,51.7,36.0,30.34,ESE,122,1.0,1.0,55,0.00,,,0.01,578,Wunderground v.1.15,2013-01-05 16:43:00,
2013-01-05 11:53:00,52.2,36.0,30.33,East,88,1.0,1.0,54,0.00,,,0.01,571,Wunderground v.1.15,2013-01-05 16:53:00,
2013-01-05 12:03:00,52.5,35.4,30.32,ENE,69,1.0,1.0,52,0.00,,,0.01,575,Wunderground v.1.15,2013-01-05 17:03:00,
2013-01-05 12:13:00,52.8,35.2,30.32,North,7,2.0,2.0,51,0.00,,,0.01,573,Wunderground v.1.15,2013-01-05 17:13:00,
2013-01-05 12:23:00,52.9,34.8,30.31,NE,56,1.0,1.0,50,0.00,,,0.01,571,Wunderground v.1.15,2013-01-05 17:23:00,
2013-01-05 12:33:00,53.1,34.9,30.31,North,5,1.0,1.0,50,0.00,,,0.01,557,Wunderground v.1.15,2013-01-05 17:33:00,
2013-01-05 12:43:00,53.5,34.8,30.31,North,5,0.0,1.0,49,0.00,,,0.01,445,Wunderground v.1.15,2013-01-05 17:43:00,
2013-01-05 12:53:00,53.6,36.4,30.30,NNE,12,1.0,1.0,52,0.00,,,0.01,591,Wunderground v.1.15,2013-01-05 17:53:00,
2013-01-05 13:03:00,53.9,38.1,30.30,East,81,1.0,1.0,55,0.00,,,0.01,603,Wunderground v.1.15,2013-01-05 18:03:00,
2013-01-05 13:13:00,54.2,38.8,30.30,ENE,77,1.0,1.0,56,0.00,,,0.01,568,Wunderground v.1.15,2013-01-05 18:13:00,
2013-01-05 13:23:00,54.6,38.3,30.29,NE,52,1.0,1.0,54,0.00,,,0.01,548,Wunderground v.1.15,2013-01-05 18:23:00,
2013-01-05 13:33:00,54.4,39.0,30.29,North,10,1.0,1.0,56,0.00,,,0.01,478,Wunderground v.1.15,2013-01-05 18:33:00,
2013-01-05 13:43:00,54.0,38.6,30.29,North,356,1.0,1.0,56,0.00,,,0.01,359,Wunderground v.1.15,2013-01-05 18:43:00,
2013-01-05 13:53:00,53.9,38.1,30.28,North,357,1.0,1.0,55,0.00,,,0.01,153,Wunderground v.1.15,2013-01-05 18:53:00,
2013-01-05 14:03:00,53.6,37.3,30.27,North,4,0.0,2.0,54,0.00,,,0.01,141,Wunderground v.1.15,2013-01-05 19:03:00,
2013-01-05 14:13:00,53.7,36.5,30.27,NNE,20,1.0,1.0,52,0.00,,,0.01,155,Wunderground v.1.15,2013-01-05 19:13:00,
2013-01-05 14:23:00,53.8,36.6,30.27,North,4,1.0,1.0,52,0.00,,,0.01,142,Wunderground v.1.15,2013-01-05 19:23:00,
2013-01-05 14:33:00,53.9,39.0,30.26,North,4,0.0,0.0,57,0.00,,,0.01,139,Wunderground v.1.15,2013-01-05 19:33:00,
2013-01-05 14:43:00,54.2,40.6,30.26,North,4,0.0,0.0,60,0.00,,,0.01,121,Wunderground v.1.15,2013-01-05 19:43:00,
2013-01-05 14:53:00,54.0,41.3,30.27,NE,52,0.0,0.0,62,0.00,,,0.01,123,Wunderground v.1.15,2013-01-05 19:53:00,
2013-01-05 15:03:00,53.7,42.2,30.26,ENE,69,0.0,0.0,65,0.00,,,0.01,153,Wunderground v.1.15,2013-01-05 20:03:00,
2013-01-05 15:13:00,53.4,42.3,30.26,SSE,160,0.0,1.0,66,0.00,,,0.01,160,Wunderground v.1.15,2013-01-05 20:13:00,
2013-01-05 15:23:00,53.3,42.2,30.27,SSE,158,0.0,1.0,66,0.00,,,0.01,146,Wunderground v.1.15,2013-01-05 20:23:00,
2013-01-05 15:33:00,53.3,41.0,30.27,SSE,158,0.0,1.0,63,0.00,,,0.01,155,Wunderground v.1.15,2013-01-05 20:33:00,
2013-01-05 15:43:00,53.2,42.5,30.27,SSE,158,1.0,1.0,67,0.00,,,0.01,160,Wunderground v.1.15,2013-01-05 20:43:00,
2013-01-05 15:53:00,53.1,42.4,30.27,SSE,152,1.0,1.0,67,0.00,,,0.01,105,Wunderground v.1.15,2013-01-05 20:53:00,
2013-01-05 16:03:00,52.6,41.9,30.26,SSE,149,1.0,2.0,67,0.00,,,0.01,93,Wunderground v.1.15,2013-01-05 21:03:00,
2013-01-05 16:13:00,52.3,42.0,30.26,SE,144,0.0,0.0,68,0.00,,,0.01,90,Wunderground v.1.15,2013-01-05 21:13:00,
2013-01-05 16:23:00,52.1,42.6,30.27,SE,143,0.0,0.0,70,0.00,,,0.01,56,Wunderground v.1.15,2013-01-05 21:23:00,
2013-01-05 16:33:00,51.8,41.6,30.27,SE,143,0.0,0.0,68,0.00,,,0.01,70,Wunderground v.1.15,2013-01-05 21:33:00,
2013-01-05 16:43:00,51.7,41.5,30.27,SE,143,0.0,0.0,68,0.00,,,0.01,44,Wunderground v.1.15,2013-01-05 21:43:00,
2013-01-05 16:53:00,51.5,41.7,30.28,SE,143,0.0,0.0,69,0.00,,,0.01,28,Wunderground v.1.15,2013-01-05 21:53:00,
2013-01-05 17:03:00,51.1,41.7,30.27,SE,143,0.0,0.0,70,0.00,,,0.01,21,Wunderground v.1.15,2013-01-05 22:03:00,
2013-01-05 17:13:00,50.6,41.9,30.27,SE,143,0.0,0.0,72,0.00,,,0.01,7,Wunderground v.1.15,2013-01-05 22:13:00,
2013-01-05 17:23:00,50.1,41.8,30.28,SE,143,0.0,0.0,73,0.00,,,0.01,0,Wunderground v.1.15,2013-01-05 22:23:00,
2013-01-05 17:33:00,49.6,42.0,30.27,SE,143,0.0,0.0,75,0.00,,,0.01,0,Wunderground v.1.15,2013-01-05 22:33:00,
2013-01-05 17:43:00,49.3,42.1,30.27,SE,143,0.0,0.0,76,0.00,,,0.01,0,Wunderground v.1.15,2013-01-05 22:43:00,
2013-01-05 17:53:00,49.0,41.8,30.28,SE,143,0.0,0.0,76,0.00,,,0.01,0,Wunderground v.1.15,2013-01-05 22:53:00,
2013-01-05 18:03:00,48.7,41.5,30.27,SE,143,0.0,0.0,76,0.00,,,0.01,0,Wunderground v.1.15,2013-01-05 23:03:00,
2013-01-05 18:13:00,48.6,41.4,30.27,SE,143,0.0,0.0,76,0.00,,,0.01,0,Wunderground v.1.15,2013-01-05 23:13:00,
2013-01-05 18:23:00,48.5,41.3,30.27,SE,143,0.0,0.0,76,0.00,,,0.01,0,Wunderground v.1.15,2013-01-05 23:23:00,
2013-01-05 18:33:00,48.4,41.5,30.27,SE,143,0.0,0.0,77,0.00,,,0.01,0,Wunderground v.1.15,2013-01-05 23:33:00,
2013-01-05 18:43:00,48.3,41.4,30.27,SE,143,0.0,0.0,77,0.00,,,0.01,0,Wunderground v.1.15,2013-01-05 23:43:00,
2013-01-05 18:53:00,48.1,41.2,30.27,SE,143,0.0,0.0,77,0.00,,,0.01,0,Wunderground v.1.15,2013-01-05 23:53:00,
2013-01-05 19:03:00,48.1,41.2,30.28,SE,143,0.0,0.0,77,0.00,,,0.01,0,Wunderground v.1.15,2013-01-06 00:03:00,
2013-01-05 19:13:00,48.0,41.5,30.28,SE,143,0.0,0.0,78,0.00,,,0.01,0,Wunderground v.1.15,2013-01-06 00:13:00,
2013-01-05 19:23:00,47.6,41.4,30.28,SE,143,0.0,0.0,79,0.00,,,0.01,0,Wunderground v.1.15,2013-01-06 00:23:00,
2013-01-05 19:33:00,47.4,41.5,30.28,SE,143,0.0,0.0,80,0.00,,,0.01,0,Wunderground v.1.15,2013-01-06 00:33:00,
2013-01-05 19:43:00,47.2,41.7,30.28,SE,143,0.0,0.0,81,0.00,,,0.01,0,Wunderground v.1.15,2013-01-06 00:43:00,
2013-01-05 19:53:00,46.8,41.9,30.28,SE,143,0.0,0.0,83,0.00,,,0.01,0,Wunderground v.1.15,2013-01-06 00:53:00,
2013-01-05 20:03:00,46.5,41.9,30.28,SE,143,0.0,0.0,84,0.00,,,0.01,0,Wunderground v.1.15,2013-01-06 01:03:00,
2013-01-05 20:13:00,46.3,42.0,30.28,SE,143,0.0,0.0,85,0.00,,,0.01,0,Wunderground v.1.15,2013-01-06 01:13:00,
2013-01-05 20:23:00,46.1,41.8,30.28,SE,143,0.0,0.0,85,0.00,,,0.01,0,Wunderground v.1.15,2013-01-06 01:23:00,
2013-01-05 20:33:00,46.4,41.8,30.26,SE,143,0.0,0.0,84,0.00,,,0.01,0,Wunderground v.1.15,2013-01-06 01:33:00,
2013-01-05 20:43:00,46.6,42.0,30.26,SE,143,0.0,0.0,84,0.00,,,0.01,0,Wunderground v.1.15,2013-01-06 01:43:00,
2013-01-05 20:53:00,46.3,41.7,30.27,SE,143,0.0,0.0,84,0.00,,,0.01,0,Wunderground v.1.15,2013-01-06 01:53:00,
2013-01-05 21:03:00,46.1,41.8,30.28,SE,143,0.0,0.0,85,0.00,,,0.01,0,Wunderground v.1.15,2013-01-06 02:03:00,
2013-01-05 21:13:00,46.0,42.0,30.28,SE,143,0.0,0.0,86,0.00,,,0.01,0,Wunderground v.1.15,2013-01-06 02:13:00,
2013-01-05 21:23:00,45.9,41.9,30.28,SE,143,0.0,0.0,86,0.00,,,0.01,0,Wunderground v.1.15,2013-01-06 02:23:00,
2013-01-05 21:33:00,45.6,42.0,30.28,SE,143,0.0,0.0,87,0.00,,,0.01,0,Wunderground v.1.15,2013-01-06 02:33:00,
2013-01-05 21:43:00,45.3,41.7,30.28,SE,143,0.0,0.0,87,0.00,,,0.01,0,Wunderground v.1.15,2013-01-06 02:43:00,
2013-01-05 21:53:00,45.0,41.7,30.27,SE,143,0.0,0.0,88,0.00,,,0.01,0,Wunderground v.1.15,2013-01-06 02:53:00,
2013-01-05 22:03:00,44.7,41.4,30.26,SE,143,0.0,0.0,88,0.00,,,0.01,0,Wunderground v.1.15,2013-01-06 03:03:00,
2013-01-05 22:13:00,44.7,41.7,30.26,SE,143,0.0,0.0,89,0.00,,,0.01,0,Wunderground v.1.15,2013-01-06 03:13:00,
2013-01-05 22:23:00,44.9,41.6,30.26,SE,143,0.0,0.0,88,0.00,,,0.01,0,Wunderground v.1.15,2013-01-06 03:23:00,
2013-01-05 22:33:00,45.2,41.9,30.25,SE,143,0.0,0.0,88,0.00,,,0.01,0,Wunderground v.1.15,2013-01-06 03:33:00,
2013-01-05 22:43:00,45.2,41.6,30.25,SE,143,0.0,0.0,87,0.00,,,0.01,0,Wunderground v.1.15,2013-01-06 03:43:00,
2013-01-05 22:53:00,45.3,41.7,30.25,SE,143,0.0,0.0,87,0.00,,,0.01,0,Wunderground v.1.15,2013-01-06 03:53:00,
2013-01-05 23:03:00,45.2,41.9,30.25,SE,143,0.0,0.0,88,0.00,,,0.01,0,Wunderground v.1.15,2013-01-06 04:03:00,
2013-01-05 23:13:00,45.4,42.1,30.25,SE,143,0.0,0.0,88,0.00,,,0.01,0,Wunderground v.1.15,2013-01-06 04:13:00,
2013-01-05 23:23:00,45.6,42.3,30.24,SE,143,0.0,0.0,88,0.00,,,0.01,0,Wunderground v.1.15,2013-01-06 04:23:00,
2013-01-05 23:33:00,45.8,42.4,30.24,SE,143,0.0,0.0,88,0.00,,,0.01,0,Wunderground v.1.15,2013-01-06 04:33:00,
2013-01-05 23:43:00,46.1,42.7,30.24,SE,143,0.0,0.0,88,0.00,,,0.01,0,Wunderground v.1.15,2013-01-06 04:43:00,
2013-01-05 23:53:00,46.4,43.0,30.25,SE,143,0.0,0.0,88,0.00,,,0.01,0,Wunderground v.1.15,2013-01-06 04:53:00,